Latest Weather Observations for Albany Airport

IDW60801

Issued at 6:23 pm WST Wednesday 12 August 2020 (issued every 10 minutes, with the page automatically refreshed every 10 minutes)

About weather observations | Map of weather stations | Latest weather observations for WA | Other Formats
Station Details ID: 009999 Name: ALBANY AIRPORT Lat: -34.94 Lon: 117.82 Height: 68.4 m
Data from the previous 72 hours. | See also: Recent months at Albany Airport
Date/Time
WST
Temp
°C
App
Temp
°C
Dew
Point
°C
Rel
Hum
%
Delta-T
°C
Wind Press
QNH
hPa
Press
MSL
hPa
Rain since
9am
mm
Dir  Spd
km/h
Gust
km/h
Spd
kts
Gust
kts
12/06:00pm 12.1 11.2 11.3 95 0.4 SW 7 11 4 6 1014.5 1014.5 1.0
12/05:30pm 12.2 10.9 11.1 93 0.6 WSW 9 13 5 7 1014.3 1014.3 0.6
12/05:00pm 12.7 9.8 10.9 89 0.9 WSW 17 22 9 12 1014.0 1014.0 0.4
12/04:57pm 12.9 10.0 11.0 88 1.0 WSW 17 22 9 12 1014.0 1014.0 0.4
12/04:30pm 13.6 10.0 9.8 78 2.0 SSW 19 26 10 14 1013.5 1013.5 0.0
12/04:00pm 14.2 10.8 10.6 79 1.9 SW 19 26 10 14 1013.4 1013.4 0.0
12/03:30pm 13.7 10.2 11.0 84 1.4 SSW 20 30 11 16 1013.4 1013.4 0.0
12/03:00pm 13.8 9.7 11.3 85 1.3 SSW 24 39 13 21 1013.3 1013.3 0.0
12/02:30pm 14.4 9.2 10.2 76 2.2 SW 28 37 15 20 1013.1 1013.1 0.0
12/02:00pm 15.7 11.0 10.7 72 2.7 SW 26 35 14 19 1013.0 1013.0 0.0
12/01:30pm 16.4 12.8 11.8 74 2.5 SW 22 30 12 16 1012.9 1012.9 0.0
12/01:00pm 15.6 11.3 10.8 73 2.6 SW 24 33 13 18 1013.0 1013.0 0.0
12/12:30pm 15.4 10.8 9.5 68 3.1 SW 24 33 13 18 1013.1 1013.1 0.0
12/12:00pm 15.8 11.1 10.6 71 2.8 SW 26 35 14 19 1013.1 1013.1 0.0
12/11:30am 15.6 11.2 10.4 71 2.7 SW 24 35 13 19 1013.3 1013.3 0.0
12/11:00am 13.4 7.8 10.0 80 1.8 SW 30 41 16 22 1013.5 1013.5 0.0
12/10:30am 15.2 10.9 10.6 74 2.4 SW 24 35 13 19 1013.5 1013.5 0.0
12/10:00am 14.8 10.6 11.0 78 2.0 SW 24 33 13 18 1013.4 1013.4 0.0
12/09:30am 13.2 9.9 10.9 86 1.2 SW 19 32 10 17 1013.3 1013.3 0.0
12/09:00am 12.6 10.7 11.7 94 0.5 WSW 13 24 7 13 1013.2 1013.2 11.4
12/08:30am 11.6 9.2 11.3 98 0.2 WSW 15 20 8 11 1013.0 1013.0 11.4
12/08:00am 11.3 9.6 11.1 99 0.1 W 11 13 6 7 1012.7 1012.7 11.4
12/07:30am 10.5 8.5 10.3 99 0.1 WNW 11 15 6 8 1012.5 1012.5 11.4
12/07:00am 10.4 8.0 10.2 99 0.1 WNW 13 15 7 8 1012.3 1012.3 11.4
12/06:30am 10.5 7.8 10.3 99 0.1 WNW 15 20 8 11 1012.1 1012.1 11.2
12/06:00am 10.5 8.5 10.3 99 0.1 WNW 11 13 6 7 1011.8 1011.8 11.2
12/05:30am 10.3 7.5 10.1 99 0.1 WNW 15 17 8 9 1011.5 1011.5 11.2
12/05:00am 10.7 8.4 10.5 99 0.1 WNW 13 17 7 9 1011.3 1011.3 11.2
12/04:30am 10.6 8.3 10.4 99 0.1 WNW 13 17 7 9 1011.1 1011.1 11.2
12/04:00am 10.9 8.7 10.7 99 0.1 WNW 13 17 7 9 1010.9 1010.9 10.8
12/03:30am 11.0 8.8 10.8 99 0.1 WNW 13 20 7 11 1010.8 1010.8 10.8
12/03:00am 11.3 8.4 11.1 99 0.1 WNW 17 22 9 12 1010.7 1010.7 10.4
12/02:30am 11.3 9.2 11.1 99 0.1 WNW 13 17 7 9 1010.5 1010.5 10.2
12/02:00am 11.2 9.1 11.0 99 0.1 W 13 17 7 9 1010.5 1010.5 10.2
12/01:30am 11.4 8.9 11.1 98 0.2 W 15 17 8 9 1010.4 1010.4 10.0
12/01:00am 11.3 8.4 11.0 98 0.2 W 17 20 9 11 1010.2 1010.2 9.8
12/12:38am 11.2 8.7 10.9 98 0.2 W 15 19 8 10 1010.3 1010.3 9.6
12/12:30am 11.3 8.8 11.0 98 0.2 WSW 15 20 8 11 1010.3 1010.3 9.6
12/12:25am 11.5 9.4 11.2 98 0.2 WSW 13 17 7 9 1010.3 1010.3 9.6
12/12:00am 11.5 8.7 11.2 98 0.2 W 17 22 9 12 1010.2 1010.2 9.4
 
Date/Time
WST
Temp
°C
App
Temp
°C
Dew
Point
°C
Rel
Hum
%
Delta-T
°C
Wind Press
QNH
hPa
Press
MSL
hPa
Rain since
9am
mm
Dir  Spd
km/h
Gust
km/h
Spd
kts
Gust
kts
11/11:51pm 11.5 8.1 11.2 98 0.2 WSW 20 28 11 15 1010.2 1010.2 9.4
11/11:30pm 11.5 8.7 11.2 98 0.2 W 17 22 9 12 1010.2 1010.2 9.0
11/11:17pm 11.6 8.4 11.3 98 0.2 W 19 24 10 13 1010.3 1010.3 9.0
11/11:06pm 11.5 8.7 11.2 98 0.2 W 17 22 9 12 1010.3 1010.3 9.0
11/11:00pm 11.5 8.3 11.2 98 0.2 W 19 24 10 13 1010.3 1010.3 9.0
11/10:30pm 11.7 8.9 11.4 98 0.2 W 17 26 9 14 1010.4 1010.4 8.6
11/10:22pm 11.7 8.9 11.4 98 0.2 W 17 20 9 11 1010.5 1010.5 8.6
11/10:04pm 11.6 7.8 11.3 98 0.2 W 22 30 12 16 1010.5 1010.5 8.6
11/10:00pm 11.7 8.3 11.4 98 0.2 W 20 30 11 16 1010.5 1010.5 8.6
11/09:47pm 11.7 8.0 11.4 98 0.2 WSW 22 32 12 17 1010.5 1010.5 8.6
11/09:42pm 11.6 7.8 11.3 98 0.2 WSW 22 30 12 16 1010.6 1010.6 8.4
11/09:30pm 11.7 8.3 11.4 98 0.2 W 20 28 11 15 1010.6 1010.6 8.4
11/09:00pm 11.8 8.7 11.5 98 0.2 W 19 24 10 13 1010.4 1010.4 7.6
11/08:30pm 11.8 8.1 11.5 98 0.2 WSW 22 30 12 16 1010.2 1010.2 7.4
11/08:01pm 11.7 7.6 11.4 98 0.2 WSW 24 30 13 16 1009.9 1009.9 7.2
11/08:00pm 11.7 7.6 11.4 98 0.2 WSW 24 30 13 16 1009.9 1009.9 7.2
11/07:43pm 11.9 7.8 11.6 98 0.2 W 24 35 13 19 1009.8 1009.8 7.0
11/07:40pm 11.9 7.8 11.6 98 0.2 W 24 30 13 16 1009.9 1009.9 7.0
11/07:30pm 11.9 8.2 11.6 98 0.2 W 22 32 12 17 1009.8 1009.8 7.0
11/07:21pm 11.9 7.8 11.6 98 0.2 WSW 24 32 13 17 1009.7 1009.7 6.8
11/07:00pm 11.9 7.5 11.6 98 0.2 WSW 26 33 14 18 1009.6 1009.6 6.2
11/06:30pm 12.1 8.4 11.6 97 0.3 W 22 32 12 17 1009.2 1009.2 5.8
11/06:00pm 12.1 8.0 11.5 96 0.3 WSW 24 33 13 18 1008.8 1008.8 4.4
11/05:30pm 12.3 7.9 11.7 96 0.3 W 26 37 14 20 1008.3 1008.3 4.2
11/05:00pm 12.5 8.9 11.9 96 0.3 WSW 22 32 12 17 1008.0 1008.0 4.0
11/04:30pm 12.8 8.8 11.9 94 0.5 W 24 32 13 17 1007.3 1007.4 3.6
11/04:00pm 12.9 8.1 11.6 92 0.7 W 28 44 15 24 1006.9 1007.0 3.4
11/03:59pm 13.0 8.2 11.7 92 0.7 W 28 44 15 24 1006.8 1006.9 3.4
11/03:49pm 13.3 9.3 11.9 91 0.8 WSW 24 39 13 21 1006.7 1006.8 3.4
11/03:44pm 13.4 9.0 11.6 89 1.0 WSW 26 39 14 21 1006.7 1006.8 3.4
11/03:30pm 13.8 8.7 12.0 89 1.0 WSW 30 41 16 22 1006.4 1006.5 3.2
11/03:00pm 13.9 8.8 11.9 88 1.1 WSW 30 39 16 21 1006.1 1006.2 3.2
11/02:30pm 13.3 9.4 12.2 93 0.6 W 24 32 13 17 1005.8 1005.9 3.2
11/02:09pm 13.0 7.2 11.4 90 0.8 WSW 33 50 18 27 1005.5 1005.6 3.2
11/02:00pm 13.2 7.6 11.4 89 1.0 WSW 32 44 17 24 1005.4 1005.5 3.2
11/01:30pm 14.1 9.2 12.5 90 0.9 WSW 30 43 16 23 1005.2 1005.3 2.8
11/01:00pm 13.2 8.1 11.9 92 0.7 WSW 30 44 16 24 1005.2 1005.3 2.8
11/12:52pm 13.2 8.5 11.9 92 0.7 WSW 28 46 15 25 1005.3 1005.4 2.8
11/12:50pm 13.3 8.6 11.9 91 0.8 WSW 28 46 15 25 1005.3 1005.4 2.8
11/12:30pm 13.4 8.4 12.3 93 0.6 WSW 30 43 16 23 1005.2 1005.3 2.8
11/12:00pm 13.5 8.9 12.4 93 0.6 WSW 28 43 15 23 1005.0 1005.1 2.2
11/11:30am 13.7 9.2 12.6 93 0.6 WSW 28 41 15 22 1005.1 1005.2 1.4
11/11:22am 12.9 7.4 11.8 93 0.6 WSW 32 43 17 23 1005.2 1005.3 1.4
11/11:00am 12.8 8.1 11.9 94 0.5 WSW 28 48 15 26 1005.1 1005.2 1.4
11/10:30am 12.7 7.5 11.6 93 0.6 WSW 30 41 16 22 1004.9 1005.0 0.8
11/10:00am 12.9 7.1 11.5 91 0.7 WSW 33 48 18 26 1004.3 1004.3 0.4
11/09:53am 12.9 7.7 11.5 91 0.7 WSW 30 48 16 26 1004.1 1004.1 0.4
11/09:36am 13.0 7.8 11.7 92 0.7 WSW 30 52 16 28 1003.8 1003.8 0.4
11/09:30am 12.9 7.7 11.5 91 0.7 WSW 30 39 16 21 1003.9 1003.9 0.4
11/09:19am 13.0 7.8 11.6 91 0.7 WSW 30 41 16 22 1003.7 1003.7 0.0
11/09:00am 12.8 7.6 11.5 92 0.7 WSW 30 43 16 23 1003.5 1003.5 15.4
11/08:30am 12.7 7.9 11.6 93 0.6 WSW 28 41 15 22 1003.0 1003.0 15.2
11/08:00am 12.5 7.5 11.1 91 0.7 WSW 28 50 15 27 1002.6 1002.6 14.8
11/07:53am 12.8 7.8 11.0 89 0.9 W 28 50 15 27 1002.6 1002.6 14.6
11/07:30am 12.7 8.9 11.3 91 0.7 W 22 35 12 19 1002.1 1002.1 14.4
11/07:00am 12.8 7.8 11.0 89 1.0 WSW 28 41 15 22 1001.5 1001.5 14.0
11/06:45am 12.6 9.4 11.2 91 0.7 WSW 19 26 10 14 1001.4 1001.4 14.0
11/06:30am 12.6 9.2 11.3 92 0.7 W 20 32 11 17 1001.1 1001.1 13.6
11/06:00am 12.1 9.3 11.3 95 0.4 WNW 17 24 9 13 1000.6 1000.6 13.6
11/05:30am 12.1 8.9 11.2 94 0.5 W 19 28 10 15 1000.3 1000.3 12.8
11/05:00am 12.3 7.4 11.2 93 0.6 W 28 48 15 26 1000.0 1000.0 12.6
11/04:56am 12.4 7.4 11.1 92 0.7 W 28 48 15 26 1000.0 1000.0 12.2
11/04:49am 12.5 7.6 11.2 92 0.7 W 28 46 15 25 999.7 999.7 12.0
11/04:30am 12.4 7.1 11.3 93 0.6 W 30 41 16 22 999.6 999.6 11.8
11/04:00am 12.2 6.6 11.4 95 0.4 W 32 44 17 24 999.3 999.3 11.8
11/03:36am 12.3 7.1 11.7 96 0.3 W 30 41 16 22 998.9 998.9 11.4
11/03:30am 12.3 7.1 11.7 96 0.3 W 30 41 16 22 998.9 998.9 11.4
11/03:03am 12.2 7.4 11.6 96 0.3 W 28 37 15 20 998.8 998.8 11.2
11/03:00am 12.2 7.8 11.6 96 0.3 W 26 37 14 20 998.8 998.8 10.8
11/02:59am 12.2 7.4 11.6 96 0.3 W 28 37 15 20 998.8 998.8 10.8
11/02:47am 12.3 7.9 11.8 97 0.3 W 26 41 14 22 998.7 998.7 10.6
11/02:30am 12.4 6.9 11.9 97 0.3 W 32 43 17 23 998.6 998.6 10.4
11/02:19am 12.3 7.5 11.8 97 0.3 W 28 35 15 19 998.4 998.4 9.6
11/02:00am 12.4 7.7 11.9 97 0.3 W 28 37 15 20 998.4 998.4 9.4
11/01:30am 12.4 7.7 11.9 97 0.3 WNW 28 43 15 23 998.2 998.2 8.4
11/01:00am 12.3 7.2 11.8 97 0.3 W 30 41 16 22 997.9 997.9 7.6
11/12:30am 12.3 7.9 11.8 97 0.3 W 26 39 14 21 997.9 997.9 7.2
11/12:00am 12.4 8.1 11.9 97 0.3 WNW 26 39 14 21 997.5 997.5 6.4
 
Date/Time
WST
Temp
°C
App
Temp
°C
Dew
Point
°C
Rel
Hum
%
Delta-T
°C
Wind Press
QNH
hPa
Press
MSL
hPa
Rain since
9am
mm
Dir  Spd
km/h
Gust
km/h
Spd
kts
Gust
kts
10/11:30pm 12.5 7.8 12.0 97 0.3 WNW 28 39 15 21 997.3 997.3 5.8
10/11:00pm 12.5 7.4 12.0 97 0.3 WNW 30 39 16 21 997.3 997.3 5.4
10/10:30pm 12.6 7.6 12.1 97 0.3 WNW 30 37 16 20 997.0 997.0 4.8
10/10:00pm 12.5 7.8 12.0 97 0.3 WNW 28 37 15 20 996.9 996.9 4.6
10/09:30pm 12.6 7.6 12.1 97 0.3 WNW 30 43 16 23 996.7 996.7 4.2
10/09:00pm 12.6 7.6 12.1 97 0.3 WNW 30 41 16 22 996.4 996.4 4.0
10/08:35pm 12.6 7.9 12.0 96 0.3 WNW 28 39 15 21 996.2 996.2 3.0
10/08:33pm 12.7 8.0 12.1 96 0.3 WNW 28 39 15 21 996.2 996.2 3.0
10/08:30pm 12.7 8.0 12.1 96 0.3 WNW 28 39 15 21 996.2 996.2 3.0
10/08:11pm 12.7 7.6 11.9 95 0.4 WNW 30 41 16 22 996.1 996.1 2.0
10/08:00pm 12.7 8.4 11.9 95 0.4 WNW 26 35 14 19 996.1 996.1 2.0
10/07:49pm 12.8 8.5 11.9 94 0.5 WNW 26 37 14 20 996.0 996.0 1.6
10/07:30pm 12.8 8.1 11.9 94 0.5 WNW 28 39 15 21 995.8 995.8 1.6
10/07:16pm 12.9 7.8 11.8 93 0.6 WNW 30 37 16 20 995.6 995.6 1.4
10/07:00pm 13.0 7.5 11.9 93 0.6 WNW 32 39 17 21 995.4 995.4 1.2
10/06:30pm 12.9 8.2 12.0 94 0.5 WNW 28 37 15 20 995.0 995.0 0.8
10/06:00pm 13.1 8.3 11.7 91 0.8 NW 28 39 15 21 995.0 995.0 0.6
10/05:30pm 14.1 8.3 10.9 81 1.7 WNW 32 43 17 23 994.6 994.6 0.0
10/05:00pm 14.6 8.7 10.6 77 2.1 WNW 32 46 17 25 994.7 994.7 0.0
10/04:30pm 14.6 9.4 10.4 76 2.2 WNW 28 39 15 21 994.2 994.2 0.0
10/04:00pm 16.1 8.7 10.0 67 3.2 WNW 39 56 21 30 994.0 994.0 0.0
10/03:54pm 16.3 9.6 9.7 65 3.5 WNW 35 56 19 30 993.9 993.9 0.0
10/03:30pm 16.5 11.4 10.6 68 3.1 WNW 28 39 15 21 993.7 993.7 0.0
10/03:00pm 16.6 10.5 9.8 64 3.6 WNW 32 43 17 23 993.6 993.6 0.0
10/02:30pm 16.9 12.1 11.6 71 2.9 W 28 39 15 21 993.2 993.2 0.0
10/02:00pm 18.0 11.2 10.6 62 4.0 WNW 37 50 20 27 993.2 993.2 0.0
10/01:52pm 17.9 12.1 10.8 63 3.8 WNW 32 50 17 27 993.3 993.3 0.0
10/01:30pm 17.1 11.4 11.2 68 3.2 WNW 32 41 17 22 993.4 993.4 0.0
10/01:11pm 15.6 9.8 11.6 77 2.2 WNW 33 52 18 28 993.7 993.7 0.0
10/01:00pm 14.7 8.3 10.7 77 2.1 WNW 35 50 19 27 993.8 993.8 0.0
10/12:30pm 17.8 11.9 10.4 62 4.0 WNW 32 46 17 25 993.7 993.7 0.0
10/12:00pm 17.0 12.3 10.6 66 3.5 WNW 26 37 14 20 994.2 994.2 0.0
10/11:30am 15.7 9.7 10.2 70 2.9 NW 32 43 17 23 994.5 994.5 0.0
10/11:00am 15.8 10.1 11.0 73 2.6 NW 32 41 17 22 994.6 994.6 0.0
10/10:30am 16.1 9.7 10.6 70 2.9 NW 35 46 19 25 994.7 994.7 0.0
10/10:00am 14.7 8.2 10.3 75 2.3 NW 35 50 19 27 994.7 994.7 0.0
10/09:30am 14.5 9.3 10.3 76 2.2 NW 28 46 15 25 994.7 994.7 0.0
10/09:00am 13.8 8.5 10.0 78 2.0 NW 28 37 15 20 994.6 994.6 0.2
10/08:30am 12.7 7.7 9.5 81 1.6 NW 26 35 14 19 994.3 994.3 0.2
10/08:00am 11.9 6.8 9.3 84 1.3 NW 26 35 14 19 994.2 994.2 0.2
10/07:30am 11.3 6.6 9.2 87 1.1 NW 24 32 13 17 994.0 994.0 0.2
10/07:00am 10.7 6.3 8.8 88 0.9 NNW 22 32 12 17 993.8 993.8 0.2
10/06:30am 10.9 6.5 9.0 88 0.9 NW 22 32 12 17 993.5 993.5 0.2
10/06:00am 10.8 6.0 8.9 88 1.0 NW 24 32 13 17 993.4 993.4 0.2
10/05:30am 11.0 6.6 8.8 86 1.1 NW 22 28 12 15 993.3 993.3 0.2
10/05:00am 11.4 6.3 9.1 86 1.2 NW 26 35 14 19 993.2 993.2 0.2
10/04:30am 11.2 6.4 8.9 86 1.1 NW 24 33 13 18 993.3 993.3 0.2
10/04:00am 11.2 6.4 8.9 86 1.2 NW 24 30 13 16 993.2 993.2 0.2
10/03:30am 11.5 7.2 9.2 86 1.2 NW 22 32 12 17 993.2 993.2 0.2
10/03:00am 11.5 6.8 9.2 86 1.2 NNW 24 35 13 19 993.3 993.3 0.2
10/02:30am 11.2 7.2 9.1 87 1.1 NNW 20 32 11 17 993.5 993.5 0.2
10/02:00am 10.9 7.0 8.7 86 1.1 NNW 19 28 10 15 993.7 993.7 0.2
10/01:30am 11.0 7.1 8.6 85 1.2 NNW 19 24 10 13 993.7 993.7 0.2
10/01:00am 11.6 6.8 8.8 83 1.4 NNW 24 35 13 19 993.7 993.7 0.2
10/12:30am 11.8 6.9 8.6 81 1.6 NNW 24 39 13 21 993.6 993.6 0.2
10/12:00am 11.7 7.2 8.7 82 1.5 N 22 28 12 15 993.8 993.8 0.2
 
Date/Time
WST
Temp
°C
App
Temp
°C
Dew
Point
°C
Rel
Hum
%
Delta-T
°C
Wind Press
QNH
hPa
Press
MSL
hPa
Rain since
9am
mm
Dir  Spd
km/h
Gust
km/h
Spd
kts
Gust
kts
09/11:30pm 11.4 7.3 8.6 83 1.4 N 20 28 11 15 993.8 993.8 0.2
09/11:00pm 11.8 7.8 9.0 83 1.4 N 20 33 11 18 994.2 994.2 0.2
09/10:30pm 11.2 8.1 8.9 86 1.1 N 15 20 8 11 994.3 994.3 0.2
09/10:00pm 11.9 8.1 9.1 83 1.4 N 19 24 10 13 994.8 994.8 0.2
09/09:30pm 11.6 7.5 8.6 82 1.5 N 20 35 11 19 995.0 995.0 0.2
09/09:00pm 12.2 7.0 9.0 81 1.6 N 26 35 14 19 994.8 994.8 0.2
09/08:30pm 12.2 6.7 9.0 81 1.6 N 28 39 15 21 995.2 995.2 0.2
09/08:00pm 12.1 7.4 9.1 82 1.5 N 24 37 13 20 995.9 995.9 0.2
09/07:30pm 12.1 6.9 8.9 81 1.6 N 26 43 14 23 996.3 996.3 0.2
09/07:00pm 12.4 5.2 9.2 81 1.6 N 37 56 20 30 995.8 995.8 0.2
09/06:30pm 12.6 4.6 9.1 79 1.8 N 41 61 22 33 995.5 995.5 0.2

Other formats

Comma delimited format used in spreadsheet applications
http://www.bom.gov.au/fwo/IDW60801/IDW60801.94802.axf

JavaScript Object Notation format (JSON) in row-major order
http://www.bom.gov.au/fwo/IDW60801/IDW60801.94802.json

Data quality

Most of these data are generated automatically and are frequently updated. Quality checks on data are not normally performed. It is possible for incorrect values to appear. Refer to information at About Latest Weather Observations and please check the disclaimer before using these data.